WIDN/TNJ METAR and TAF weather

Enter ICAO airport designator
Station Type Date Time Source
WIDN METAR 2022/06/27 03:00 UTC NOAA

WIDN 270300Z 16006KT 9999 SCT017 31/25 Q1011 NOSIG


Station Type Date Time Source
WIDN Decoded METAR 2022/06/27 03:00 UTC NOAA

Station name not available
Jun 26, 2022 - 11:00 PM EDT / 2022.06.27 0300 UTC
Wind: from the SSE (160 degrees) at 7 MPH (6 KT):0
Visibility: greater than 7 mile(s):0
Sky conditions: partly cloudy
Temperature: 87 F (31 C)
Heat index: 97.5 F (36.4 C):1
Dew Point: 77 F (25 C)
Relative Humidity: 70%
Pressure (altimeter): 29.85 in. Hg (1011 hPa)
ob: WIDN 270300Z 16006KT 9999 SCT017 31/25 Q1011 NOSIG
cycle: 3

Station Type Date Time Source
WIDN TAF 2011/04/08 06:00 UTC NOAA

TAF WIDN 080500Z 0806/0818 04010KT 9000 SCT020
BECMG 35010KT

Example: see airport list